Time;durP1;ratioP1;P1;durP2;ratioP2;P2;SDS_P1;SDS_P2;PMS_P1;PMS_P2;Temp;Humidity;BMP_temperature;BMP_pressure;BME280_temperature;BME280_humidity;BME280_pressure;Samples;Min_cycle;Max_cycle;Signal;HPM_P1;HPM_P2
2022/03/20 00:00:39;;;;;;;30.92;20.67;;;5.70;49.10;;;4.13;48.12;97083.25;4972750;28;20649;-64
2022/03/20 00:03:09;;;;;;;29.95;19.98;;;5.70;49.30;;;4.12;49.00;97082.41;4963913;28;20039;-65
2022/03/20 00:05:38;;;;;;;28.63;18.98;;;5.70;49.30;;;4.08;48.73;97077.59;4962062;28;20046;-64
2022/03/20 00:08:11;;;;;;;29.15;19.67;;;5.60;49.40;;;4.04;49.21;97090.00;4964711;28;20137;-64
2022/03/20 00:10:37;;;;;;;33.38;19.55;;;5.60;49.60;;;4.02;48.40;97075.47;4964879;28;20038;-65
2022/03/20 00:13:06;;;;;;;29.98;19.88;;;5.60;49.60;;;3.98;48.94;97080.09;4964255;28;20035;-64
2022/03/20 00:15:32;;;;;;;34.38;19.98;;;5.60;49.70;;;3.98;48.80;97080.09;4942357;28;20062;-64
2022/03/20 00:17:58;;;;;;;29.63;19.70;;;5.60;49.80;;;3.95;48.79;97085.56;4965371;28;20116;-63
2022/03/20 00:20:24;;;;;;;31.48;20.88;;;5.50;49.80;;;3.94;48.73;97083.91;4966111;28;20514;-64
2022/03/20 00:22:49;;;;;;;30.20;19.50;;;5.50;49.80;;;3.93;48.74;97082.25;4945282;28;20078;-63
2022/03/20 00:25:16;;;;;;;30.60;20.65;;;5.50;49.90;;;3.92;48.68;97084.03;4933812;28;20209;-63
2022/03/20 00:27:42;;;;;;;31.80;20.58;;;5.50;49.90;;;3.89;49.28;97081.66;4963784;28;20137;-64
2022/03/20 00:30:08;;;;;;;30.80;20.30;;;5.50;50.20;;;3.85;49.38;97082.88;4963638;28;20031;-64
2022/03/20 00:32:34;;;;;;;32.47;20.85;;;5.40;50.20;;;3.82;49.44;97080.50;4975660;28;20086;-63
2022/03/20 00:35:00;;;;;;;30.63;19.55;;;5.40;50.40;;;3.81;49.27;97081.44;4968537;28;20034;-64
2022/03/20 00:37:29;;;;;;;33.97;21.10;;;5.40;50.50;;;3.81;50.14;97081.44;4968636;28;20454;-65
2022/03/20 00:39:55;;;;;;;29.95;20.50;;;5.40;50.50;;;3.79;49.48;97085.13;4985126;28;20030;-64
2022/03/20 00:42:21;;;;;;;32.83;20.67;;;5.40;50.60;;;3.76;49.42;97087.97;4979191;28;20035;-64
2022/03/20 00:44:46;;;;;;;28.67;20.45;;;5.30;50.80;;;3.74;49.40;97084.66;4963476;28;20146;-65
2022/03/20 00:47:13;;;;;;;31.05;21.13;;;5.30;50.80;;;3.73;49.61;97085.63;4965631;28;20134;-64
2022/03/20 00:49:39;;;;;;;31.52;20.17;;;5.30;50.80;;;3.71;49.89;97087.50;4981110;28;20035;-64
2022/03/20 00:52:06;;;;;;;34.15;20.30;;;5.20;51.00;;;3.68;49.81;97091.19;4965259;28;20051;-67
2022/03/20 00:54:32;;;;;;;32.85;20.73;;;5.20;50.90;;;3.64;50.18;97077.59;4964125;28;20039;-64
2022/03/20 00:56:58;;;;;;;29.52;20.42;;;5.20;51.00;;;3.66;49.66;97090.50;4965239;28;20039;-64
2022/03/20 00:59:24;;;;;;;29.15;19.85;;;5.20;51.10;;;3.63;50.56;97080.31;4962362;28;20067;-65
2022/03/20 01:01:49;;;;;;;36.15;20.88;;;5.20;51.30;;;3.60;50.35;97081.38;4961840;28;20035;-64
2022/03/20 01:04:16;;;;;;;32.08;21.00;;;5.10;51.60;;;3.60;50.06;97080.53;4950802;28;20046;-64
2022/03/20 01:06:42;;;;;;;30.55;20.98;;;5.20;51.40;;;3.59;50.65;97087.53;5003675;22;20117;-62
2022/03/20 01:09:08;;;;;;;29.95;20.23;;;5.10;51.40;;;3.56;50.56;97073.94;4971094;28;20133;-62
2022/03/20 01:11:34;;;;;;;31.63;21.52;;;5.10;51.60;;;3.55;50.49;97082.69;4993712;28;20034;-62
2022/03/20 01:14:00;;;;;;;32.88;21.30;;;5.10;51.60;;;3.51;51.12;97076.91;4987351;28;20433;-63
2022/03/20 01:16:26;;;;;;;32.85;21.02;;;5.10;51.70;;;3.52;50.53;97080.34;4962017;28;20052;-64
2022/03/20 01:18:51;;;;;;;31.75;21.55;;;5.10;51.70;;;3.50;50.86;97075.25;4987400;28;20123;-63
2022/03/20 01:21:17;;;;;;;35.55;22.23;;;5.10;51.80;;;3.48;51.13;97071.94;4985457;28;20106;-63
2022/03/20 01:23:43;;;;;;;32.35;21.75;;;5.00;51.90;;;3.45;50.99;97073.97;4968104;28;20042;-63
2022/03/20 01:26:10;;;;;;;36.35;21.85;;;5.10;52.10;;;3.42;51.38;97072.44;4967700;28;20065;-63
2022/03/20 01:28:35;;;;;;;31.67;20.98;;;5.00;51.90;;;3.41;51.24;97081.19;4966002;28;20536;-63
2022/03/20 01:31:01;;;;;;;33.40;21.80;;;5.00;52.30;;;3.40;50.97;97078.72;4985058;28;20058;-63
2022/03/20 01:33:27;;;;;;;32.67;20.98;;;5.00;52.40;;;3.40;51.43;97084.75;4994559;28;20129;-64
2022/03/20 01:35:52;;;;;;;33.15;22.42;;;5.00;52.30;;;3.40;51.33;97078.72;4965787;28;20055;-63
2022/03/20 01:38:20;;;;;;;35.05;22.77;;;5.00;52.30;;;3.38;51.27;97077.03;4986699;28;20034;-63
2022/03/20 01:40:47;;;;;;;33.40;22.45;;;5.00;52.40;;;3.38;52.03;97084.00;4971016;28;20196;-63
2022/03/20 01:43:14;;;;;;;35.30;23.20;;;5.00;52.60;;;3.36;51.76;97088.50;4975900;28;20035;-63
2022/03/20 01:45:40;;;;;;;34.58;22.60;;;5.00;52.80;;;3.34;51.83;97082.59;4953369;28;20031;-63
2022/03/20 01:48:05;;;;;;;38.10;23.90;;;5.00;52.90;;;3.30;51.62;97079.41;4967691;28;20039;-63
2022/03/20 01:50:34;;;;;;;36.60;23.60;;;4.90;53.10;;;3.28;51.87;97081.31;4963247;28;20096;-63
2022/03/20 01:53:00;;;;;;;35.40;23.17;;;4.90;53.20;;;3.28;51.96;97083.09;4985947;28;20038;-62
2022/03/20 01:55:26;;;;;;;35.30;22.52;;;4.90;53.30;;;3.26;52.33;97078.00;4936687;28;20063;-63
2022/03/20 01:57:54;;;;;;;36.20;23.17;;;4.90;53.30;;;3.24;52.20;97074.69;4969046;28;20033;-63
2022/03/20 02:00:20;;;;;;;34.35;22.35;;;4.80;53.60;;;3.23;52.96;97078.25;4989929;28;20061;-63
2022/03/20 02:02:46;;;;;;;33.80;23.92;;;4.80;53.50;;;3.24;52.54;97068.69;4988823;28;20052;-63
2022/03/20 02:05:12;;;;;;;35.33;23.60;;;4.90;53.50;;;3.22;52.83;97075.78;4988503;28;20134;-63
2022/03/20 02:07:38;;;;;;;36.63;23.35;;;4.80;53.60;;;3.20;52.90;97072.47;4953760;28;20035;-63
2022/03/20 02:10:05;;;;;;;36.28;23.33;;;4.80;53.60;;;3.20;52.48;97072.47;4950661;28;20066;-63
2022/03/20 02:12:31;;;;;;;35.97;23.70;;;4.90;53.60;;;3.21;52.72;97071.53;4971480;28;20030;-63
2022/03/20 02:14:58;;;;;;;35.08;23.77;;;4.90;54.80;;;3.23;53.51;97075.66;4971491;28;20050;-63
2022/03/20 02:17:30;;;;;;;35.33;22.67;;;4.90;54.80;;;3.23;53.17;97072.22;4971303;28;20383;-63
2022/03/20 02:20:03;;;;;;;38.45;24.40;;;4.90;54.10;;;3.21;54.13;97071.53;4958461;28;20046;-63
2022/03/20 02:22:30;;;;;;;36.35;23.83;;;4.80;54.10;;;3.17;53.47;97070.06;4985313;28;20113;-63
2022/03/20 02:24:55;;;;;;;36.03;24.45;;;4.80;54.20;;;3.14;53.55;97067.72;4953572;28;20037;-63
2022/03/20 02:27:23;;;;;;;37.38;24.63;;;4.80;54.40;;;3.10;53.55;97074.13;4975729;28;20463;-63
2022/03/20 02:29:57;;;;;;;35.05;23.80;;;4.70;54.50;;;3.08;54.92;97069.03;4982133;28;20066;-64
2022/03/20 02:32:28;;;;;;;43.47;24.48;;;4.70;54.70;;;3.07;54.16;97060.41;4952972;28;20379;-64
2022/03/20 02:34:55;;;;;;;;;;;4.70;54.70;;;3.03;56.33;97066.78;4979997;28;20046;-63
2022/03/20 02:37:22;;;;;;;35.20;23.85;;;4.60;54.80;;;2.97;54.05;97056.88;4986392;28;19918;-63
2022/03/20 02:39:48;;;;;;;36.67;24.25;;;4.60;55.10;;;2.94;53.24;97057.13;4972305;28;20046;-63
2022/03/20 02:42:15;;;;;;;39.55;23.63;;;4.50;55.10;;;2.91;53.97;97054.72;4984104;28;20146;-63
2022/03/20 02:45:10;;;;;;;35.50;24.02;;;4.60;55.20;;;2.90;56.68;97049.66;4939728;28;20047;-63
2022/03/20 02:47:42;;;;;;;35.47;23.17;;;4.50;55.30;;;2.90;55.30;97060.88;4979607;28;20521;-63
2022/03/20 02:50:20;;;;;;;37.35;23.90;;;4.50;55.30;;;2.88;55.80;97056.75;4970629;28;20046;-63
2022/03/20 02:52:58;;;;;;;33.30;22.65;;;4.50;55.30;;;2.86;56.11;97054.25;4952748;28;20046;-62
2022/03/20 02:55:36;;;;;;;38.10;24.85;;;4.40;55.50;;;2.84;56.22;97066.56;4979804;28;20415;-63
2022/03/20 02:58:05;;;;;;;36.85;23.50;;;4.50;55.50;;;2.83;55.04;97067.50;4984391;28;20126;-63
2022/03/20 03:00:32;;;;;;;40.45;24.83;;;4.50;55.50;;;2.83;54.59;97075.28;4952798;28;20034;-63
2022/03/20 03:02:59;;;;;;;41.22;24.00;;;4.50;55.50;;;2.83;54.44;97083.09;4985433;28;20027;-63
2022/03/20 03:05:26;;;;;;;38.63;23.73;;;4.60;55.30;;;2.83;54.40;97090.88;4983670;28;20034;-63
2022/03/20 03:10:59;;;;;;;34.58;23.42;;;4.50;55.30;;;2.82;55.77;97094.44;4990506;28;20038;-64
2022/03/20 03:13:35;;;;;;;35.92;23.67;;;4.50;55.40;;;2.81;55.82;97100.56;4974766;28;20125;-63
2022/03/20 03:16:12;;;;;;;40.00;24.25;;;4.50;55.40;;;2.76;56.74;97093.13;4969374;28;20100;-62
2022/03/20 03:18:39;;;;;;;38.03;24.00;;;4.40;55.60;;;2.75;55.03;97090.66;4984405;28;20050;-63
2022/03/20 03:21:13;;;;;;;36.20;23.45;;;4.40;55.70;;;2.72;54.92;97093.47;4968806;28;20108;-64
2022/03/20 03:23:39;;;;;;;36.05;23.30;;;4.30;55.80;;;2.73;54.98;97100.34;4970102;28;20023;-63
2022/03/20 03:26:05;;;;;;;34.30;23.02;;;4.40;55.90;;;2.71;55.17;97108.22;4967414;28;20039;-63
2022/03/20 03:28:37;;;;;;;35.80;23.30;;;4.30;55.90;;;2.70;54.65;97105.72;4969700;28;20030;-63
2022/03/20 03:31:08;;;;;;;43.55;23.58;;;4.30;56.00;;;2.69;56.47;97114.47;4974177;28;20031;-63
2022/03/20 03:33:35;;;;;;;38.13;24.10;;;4.30;56.00;;;2.66;54.93;97109.50;4976000;28;20100;-63
2022/03/20 03:36:01;;;;;;;40.33;25.23;;;4.30;56.10;;;2.66;55.08;97110.34;4983550;28;20034;-63
2022/03/20 03:38:34;;;;;;;39.40;24.60;;;4.30;56.30;;;2.63;56.67;97112.34;4954264;28;20041;-63
2022/03/20 03:41:00;;;;;;;37.53;24.23;;;4.20;56.30;;;2.63;55.60;97112.34;4957695;28;20027;-63
2022/03/20 03:43:26;;;;;;;37.08;24.05;;;4.20;56.60;;;2.59;55.63;97113.50;4984040;28;20100;-63
2022/03/20 03:45:53;;;;;;;40.08;24.35;;;4.20;56.50;;;2.59;55.88;97113.50;4981625;28;20043;-62
2022/03/20 03:48:19;;;;;;;34.28;23.33;;;4.20;56.60;;;2.57;55.48;97107.59;4959551;28;20065;-63
2022/03/20 03:50:47;;;;;;;41.40;25.38;;;4.20;56.50;;;2.54;55.85;97116.47;4971679;28;20133;-63
2022/03/20 03:53:13;;;;;;;41.25;25.33;;;4.20;56.70;;;2.53;55.99;97119.19;4970703;28;20693;-63
2022/03/20 03:55:41;;;;;;;37.72;25.25;;;4.20;56.90;;;2.53;55.97;97124.38;4962690;28;20103;-63
2022/03/20 03:58:07;;;;;;;37.22;23.88;;;4.20;56.80;;;2.51;56.04;97131.44;4986844;28;20113;-63
2022/03/20 04:00:34;;;;;;;36.40;23.58;;;4.20;56.80;;;2.50;56.38;97124.59;4968125;28;20057;-63
2022/03/20 04:03:00;;;;;;;37.10;25.13;;;4.10;56.90;;;2.48;56.25;97127.28;4993110;28;20038;-63
2022/03/20 04:05:27;;;;;;;41.88;24.60;;;4.10;57.20;;;2.47;56.04;97126.47;4957332;28;20046;-63
2022/03/20 04:07:53;;;;;;;36.35;23.48;;;4.10;57.00;;;2.44;56.16;97121.50;4983774;28;20035;-63
2022/03/20 04:10:19;;;;;;;38.63;23.83;;;4.10;57.10;;;2.41;56.25;97123.50;4968526;28;20046;-63
2022/03/20 04:12:45;;;;;;;38.20;25.55;;;4.10;57.40;;;2.34;57.00;97125.72;4991964;28;20046;-63
2022/03/20 04:15:11;;;;;;;37.92;25.23;;;3.90;57.70;;;2.27;56.66;97119.34;4966923;28;20585;-63
2022/03/20 04:17:37;;;;;;;37.78;24.30;;;3.90;58.10;;;2.23;56.98;97120.47;4971393;28;20026;-63
2022/03/20 04:20:04;;;;;;;36.05;24.45;;;3.80;58.10;;;2.20;57.39;97127.66;4972115;28;20029;-63
2022/03/20 04:22:30;;;;;;;41.13;25.52;;;3.70;58.20;;;2.15;56.91;97125.41;4971650;28;20070;-63
2022/03/20 04:24:56;;;;;;;38.92;24.65;;;3.70;58.30;;;2.11;57.46;97130.00;4969325;28;20038;-64
2022/03/20 04:27:22;;;;;;;38.55;25.23;;;3.70;58.40;;;2.08;57.17;97124.22;4983664;28;20113;-63
2022/03/20 04:29:48;;;;;;;41.38;25.48;;;3.70;58.40;;;2.07;57.52;97132.94;4967570;28;20470;-63
2022/03/20 04:32:14;;;;;;;39.88;25.08;;;3.70;58.40;;;2.05;57.59;97140.00;4984941;28;20046;-63
2022/03/20 04:34:42;;;;;;;42.63;25.77;;;3.60;58.60;;;2.06;58.07;97141.66;5007999;28;20033;-63
2022/03/20 04:37:09;;;;;;;38.55;24.30;;;3.70;58.50;;;2.06;58.08;97141.66;5001948;28;20064;-63
2022/03/20 04:39:35;;;;;;;38.83;24.38;;;3.70;58.50;;;2.04;57.76;97140.94;4974286;28;20050;-63
2022/03/20 04:42:01;;;;;;;41.08;26.67;;;3.70;58.50;;;2.03;57.84;97139.25;4952389;28;20034;-63
2022/03/20 04:44:27;;;;;;;35.45;24.40;;;3.70;58.40;;;2.04;57.78;97148.72;4982610;28;20027;-63
2022/03/20 04:46:53;;;;;;;39.55;25.17;;;3.70;58.40;;;2.04;57.94;97149.56;4982495;28;20031;-63
2022/03/20 05:00:18;;;;;;;39.13;24.88;;;3.60;58.70;;;1.97;57.90;97148.31;4991357;28;20578;-62
2022/03/20 05:02:45;;;;;;;39.88;25.27;;;3.70;58.70;;;1.98;58.12;97157.75;4971567;28;20526;-63
2022/03/20 05:05:11;;;;;;;39.05;24.92;;;3.70;58.80;;;1.98;58.28;97162.94;4971420;28;20045;-63
2022/03/20 05:07:37;;;;;;;42.63;25.42;;;3.70;58.90;;;1.97;58.49;97163.06;4970456;28;20192;-63
2022/03/20 05:15:33;;;;;;;38.17;23.98;;;3.60;59.10;;;1.95;58.10;97180.50;4989049;28;20033;-63
2022/03/20 05:17:58;;;;;;;37.72;24.55;;;3.60;59.20;;;1.95;58.85;97185.69;4990240;28;20038;-63
2022/03/20 05:20:25;;;;;;;40.83;25.73;;;3.70;59.00;;;1.96;58.11;97192.53;4990225;28;20066;-63
2022/03/20 05:22:51;;;;;;;37.75;24.80;;;3.70;58.90;;;1.94;59.06;97186.63;4969486;28;20042;-64
2022/03/20 05:25:17;;;;;;;40.45;25.33;;;3.60;59.10;;;1.92;58.89;97189.34;4966166;28;20031;-64
2022/03/20 05:27:43;;;;;;;44.17;25.58;;;3.60;59.20;;;1.91;59.00;97194.63;4973332;28;20084;-63
2022/03/20 05:30:10;;;;;;;41.60;25.15;;;3.60;59.30;;;1.89;59.21;97197.34;4958964;28;20130;-63
2022/03/20 05:32:37;;;;;;;39.13;25.27;;;3.60;59.40;;;1.90;59.08;97195.56;4954164;28;20062;-63
2022/03/20 05:35:08;;;;;;;42.55;27.70;;;3.60;59.50;;;1.89;59.67;97191.31;4985353;28;20034;-63
2022/03/20 05:37:34;;;;;;;44.38;27.23;;;3.60;59.50;;;1.89;58.57;97183.53;4989439;28;20041;-63
2022/03/20 05:40:00;;;;;;;39.63;25.58;;;3.60;59.40;;;1.88;58.89;97184.47;4972230;28;20030;-63
2022/03/20 05:42:26;;;;;;;42.47;26.70;;;3.60;59.40;;;1.89;59.62;97188.72;4961212;28;20072;-63
2022/03/20 05:44:52;;;;;;;43.08;27.23;;;3.70;59.30;;;1.89;58.96;97188.72;5006255;28;20037;-63
2022/03/20 05:47:17;;;;;;;42.42;27.02;;;3.60;59.40;;;1.92;59.09;97185.91;4972682;28;20058;-63
2022/03/20 05:49:43;;;;;;;39.20;24.65;;;3.70;59.40;;;1.94;58.83;97199.59;4985195;28;20030;-63
2022/03/20 05:52:09;;;;;;;40.70;25.95;;;3.80;59.20;;;1.95;58.60;97196.91;4982705;28;20081;-63
2022/03/20 05:54:35;;;;;;;40.05;25.70;;;3.80;59.10;;;1.97;58.94;97201.97;4971118;28;20046;-63
2022/03/20 05:59:45;;;;;;;39.15;25.73;;;3.80;58.90;;;2.00;59.16;97201.75;4976269;28;20122;-63
2022/03/20 06:02:11;;;;;;;42.70;27.63;;;3.90;58.70;;;2.03;59.27;97201.53;4995444;28;20046;-63
2022/03/20 06:04:38;;;;;;;43.95;28.33;;;3.90;58.90;;;2.07;58.92;97196.03;5005056;28;20037;-63
2022/03/20 06:07:05;;;;;;;37.72;24.92;;;4.10;58.80;;;2.11;60.13;97201.84;4983849;28;20065;-63
2022/03/20 06:09:30;;;;;;;40.53;24.48;;;4.10;58.60;;;2.16;59.27;97207.53;4973247;28;20038;-63
2022/03/20 06:11:56;;;;;;;38.22;25.40;;;4.10;58.50;;;2.18;59.39;97205.66;4952154;28;20336;-63
2022/03/20 06:14:22;;;;;;;40.70;26.95;;;4.20;58.30;;;2.23;59.70;97211.31;4938976;28;20581;-66
2022/03/20 06:16:48;;;;;;;40.63;25.20;;;4.20;58.20;;;2.29;59.66;97216.09;4976062;28;20137;-65
2022/03/20 06:19:15;;;;;;;40.63;26.05;;;4.30;57.70;;;2.36;59.18;97212.13;4953790;28;20547;-63
2022/03/20 06:21:44;;;;;;;40.78;24.27;;;4.40;57.50;;;2.44;59.47;97208.97;4965597;28;20183;-63
2022/03/20 06:24:10;;;;;;;38.10;24.55;;;4.60;56.90;;;2.54;59.31;97216.94;4978270;28;20055;-63
2022/03/20 06:26:36;;;;;;;39.20;24.60;;;4.80;56.40;;;2.62;58.98;97219.78;4967550;28;20065;-63
2022/03/20 06:29:05;;;;;;;38.00;24.88;;;4.90;56.00;;;2.72;59.23;97218.19;4985646;28;20035;-63
2022/03/20 06:31:31;;;;;;;35.60;23.63;;;5.10;55.60;;;2.83;58.92;97220.81;4987813;28;20034;-65
2022/03/20 06:33:57;;;;;;;37.42;24.55;;;5.20;55.00;;;2.94;58.86;97213.06;4953950;28;20129;-66
2022/03/20 06:36:23;;;;;;;37.05;24.50;;;5.30;54.70;;;3.04;58.57;97221.81;4972233;28;20041;-68
2022/03/20 06:38:49;;;;;;;37.28;24.50;;;5.50;54.50;;;3.17;58.21;97229.53;4985430;28;20038;-65
2022/03/20 06:41:14;;;;;;;36.63;24.55;;;5.70;54.00;;;3.27;58.61;97227.88;4969150;28;20407;-65
2022/03/20 06:43:41;;;;;;;35.50;24.05;;;5.80;53.40;;;3.41;58.46;97220.81;4969052;28;20511;-66
2022/03/20 06:46:07;;;;;;;46.38;29.75;;;6.10;53.20;;;3.52;58.51;97229.44;4949422;28;20509;-65
2022/03/20 06:48:33;;;;;;;41.88;28.00;;;6.10;53.40;;;3.69;58.07;97230.75;4952227;28;20030;-64
2022/03/20 06:50:59;;;;;;;38.05;26.63;;;6.50;52.40;;;3.85;57.83;97226.03;4981463;28;20041;-64
2022/03/20 06:53:25;;;;;;;36.10;24.33;;;6.60;51.80;;;4.00;57.74;97239.59;4960075;28;20038;-65
2022/03/20 06:55:51;;;;;;;34.60;23.38;;;6.80;51.10;;;4.13;57.40;97240.28;4986105;28;20077;-63
2022/03/20 06:58:17;;;;;;;35.97;24.15;;;6.90;50.30;;;4.27;57.30;97240.00;4972277;28;20042;-63
2022/03/20 07:00:43;;;;;;;33.35;22.77;;;7.10;50.20;;;4.45;57.17;97245.53;4983697;28;20164;-64
2022/03/20 07:03:10;;;;;;;34.70;24.23;;;7.30;49.10;;;4.58;56.95;97235.81;4989742;28;20130;-64
2022/03/20 07:05:39;;;;;;;35.20;23.02;;;7.50;48.50;;;4.74;55.86;97240.56;4967212;28;20122;-64
2022/03/20 07:08:05;;;;;;;35.40;24.10;;;7.80;47.90;;;4.93;55.88;97243.34;4971841;28;20173;-64
2022/03/20 07:10:31;;;;;;;42.42;27.58;;;8.20;47.30;;;5.15;55.78;97238.97;4972074;28;20027;-64
2022/03/20 07:15:43;;;;;;;29.42;22.63;;;8.70;45.70;;;5.60;55.37;97243.91;4988040;28;20084;-64
2022/03/20 07:18:09;;;;;;;33.08;23.08;;;9.10;44.80;;;5.75;54.22;97237.38;4966261;28;20117;-64
2022/03/20 07:20:36;;;;;;;30.58;22.88;;;9.30;43.90;;;5.96;53.85;97247.81;4983759;28;20414;-67
2022/03/20 07:23:01;;;;;;;28.58;22.35;;;9.60;43.40;;;6.17;52.74;97247.75;4982052;28;20061;-63
2022/03/20 07:30:56;;;;;;;28.70;22.63;;;10.50;41.50;;;6.88;51.76;97248.38;4985072;28;20161;-63
2022/03/20 07:33:24;;;;;;;27.35;22.77;;;10.70;40.60;;;7.07;51.04;97249.22;4969335;28;20055;-63
2022/03/20 07:35:51;;;;;;;25.30;21.40;;;11.10;39.70;;;7.27;50.35;97250.03;4988153;28;20089;-63
2022/03/20 07:38:16;;;;;;;25.90;21.67;;;11.20;39.20;;;7.41;49.96;97253.16;4955158;28;20562;-62
2022/03/20 07:40:42;;;;;;;26.77;22.17;;;11.10;38.80;;;7.61;49.01;97255.59;4965120;28;20038;-63
2022/03/20 07:43:08;;;;;;;28.40;23.30;;;11.70;38.50;;;7.88;48.64;97260.03;5000759;28;20045;-63
2022/03/20 07:45:34;;;;;;;25.73;21.15;;;12.20;37.50;;;8.14;48.24;97249.72;4966575;28;20034;-62
2022/03/20 07:48:00;;;;;;;24.88;20.38;;;12.70;36.50;;;8.38;48.03;97251.88;4968398;28;20097;-62
2022/03/20 07:50:26;;;;;;;22.60;19.13;;;13.10;35.70;;;8.63;46.75;97249.50;4968978;28;20034;-62
2022/03/20 07:52:52;;;;;;;23.80;20.00;;;13.40;34.70;;;8.83;46.78;97253.66;4954949;28;20414;-62
2022/03/20 07:55:17;;;;;;;22.15;18.25;;;13.60;33.90;;;9.06;45.80;97252.22;4984966;28;20043;-63
2022/03/20 07:57:44;;;;;;;22.95;18.98;;;14.10;33.60;;;9.29;45.26;97251.75;4981249;28;20042;-62
2022/03/20 08:00:11;;;;;;;23.95;19.98;;;14.30;32.80;;;9.47;45.02;97252.50;4986287;28;20030;-63
2022/03/20 08:02:37;;;;;;;21.73;18.23;;;14.40;32.70;;;9.68;45.38;97249.53;4959619;28;20031;-63
2022/03/20 08:05:03;;;;;;;23.38;18.45;;;14.60;32.30;;;9.95;44.51;97251.16;4980773;28;20466;-63
2022/03/20 08:07:38;;;;;;;22.52;19.20;;;15.20;31.70;;;10.23;41.99;97251.81;4963136;28;20672;-63
2022/03/20 08:10:08;;;;;;;20.13;17.95;;;15.50;30.50;;;10.48;42.07;97252.72;4969225;28;20042;-64
2022/03/20 08:12:34;;;;;;;24.17;17.77;;;15.70;30.50;;;10.75;42.80;97249.84;4967091;28;20125;-64
2022/03/20 08:15:00;;;;;;;22.55;18.15;;;16.10;30.30;;;11.09;42.48;97249.72;4975925;28;20446;-64
2022/03/20 08:17:28;;;;;;;20.52;16.50;;;16.60;30.00;;;11.40;41.95;97246.44;4986028;28;20062;-64
2022/03/20 08:19:53;;;;;;;21.42;17.42;;;16.80;29.00;;;11.65;41.10;97250.69;4970449;28;20026;-64
2022/03/20 08:22:19;;;;;;;20.90;17.83;;;16.90;28.10;;;11.89;41.26;97257.75;4970407;28;20486;-64
2022/03/20 08:24:47;;;;;;;21.67;17.88;;;17.10;28.20;;;12.09;39.90;97255.53;4958253;28;20042;-64
2022/03/20 08:27:12;;;;;;;20.50;16.83;;;17.30;27.70;;;12.30;39.63;97260.25;4982554;28;20046;-64
2022/03/20 08:29:39;;;;;;;21.55;17.63;;;17.60;28.10;;;12.58;38.99;97258.81;4970404;28;20057;-65
2022/03/20 08:32:05;;;;;;;20.13;17.17;;;17.70;27.30;;;12.78;39.10;97253.91;4969508;28;20031;-66
2022/03/20 08:34:31;;;;;;;20.20;17.27;;;17.80;27.30;;;12.95;38.53;97250.16;4984012;28;20129;-65
2022/03/20 08:36:57;;;;;;;20.77;18.13;;;18.10;27.20;;;13.25;37.66;97253.78;4984612;28;20057;-64
2022/03/20 08:39:22;;;;;;;23.02;17.15;;;18.60;26.50;;;13.45;37.31;97257.56;4952915;28;20035;-65
2022/03/20 08:41:48;;;;;;;19.25;16.90;;;18.70;26.60;;;13.70;36.67;97250.25;4948090;28;20402;-63
2022/03/20 08:44:14;;;;;;;20.00;17.38;;;19.00;25.60;;;13.91;36.35;97260.13;4954827;28;20081;-63
2022/03/20 08:46:40;;;;;;;19.55;17.05;;;19.20;25.50;;;14.12;36.76;97264.69;4977474;28;20094;-63
2022/03/20 08:49:07;;;;;;;24.13;19.42;;;19.40;25.70;;;14.36;36.10;97260.94;4974185;28;20521;-63
2022/03/20 08:51:33;;;;;;;20.02;17.15;;;19.60;25.30;;;14.58;35.91;97254.72;4970907;28;20109;-64
2022/03/20 08:54:00;;;;;;;22.33;18.13;;;19.80;24.50;;;14.78;35.73;97259.44;4990522;28;20035;-63
2022/03/20 08:56:26;;;;;;;19.55;16.45;;;20.10;24.80;;;15.04;35.13;97254.41;4958396;28;20030;-63
2022/03/20 08:58:52;;;;;;;18.95;16.00;;;20.50;24.50;;;15.28;35.11;97256.69;4967958;28;20045;-64
2022/03/20 09:01:18;;;;;;;19.05;15.82;;;20.60;24.40;;;15.55;35.08;97246.31;4972915;28;20042;-64
2022/03/20 09:03:49;;;;;;;18.33;16.33;;;20.90;24.00;;;15.66;34.31;97248.47;4970916;28;20510;-64
2022/03/20 09:06:19;;;;;;;18.95;16.95;;;20.70;23.70;;;15.87;33.96;97244.97;4987848;28;20612;-63
2022/03/20 09:08:46;;;;;;;27.30;23.00;;;20.80;23.60;;;16.05;33.34;97249.75;4973947;28;20092;-64
2022/03/20 09:11:12;;;;;;;21.50;17.63;;;21.20;23.60;;;16.33;33.80;97247.06;4984602;28;20062;-65
2022/03/20 09:13:38;;;;;;;19.77;15.80;;;21.60;23.20;;;16.58;33.65;97244.72;4971087;28;20070;-65
2022/03/20 09:19:00;;;;;;;19.45;16.98;;;22.10;23.20;;;17.14;32.54;97248.78;4972484;28;20049;-64
2022/03/20 09:21:31;;;;;;;19.38;16.65;;;22.20;22.70;;;17.44;31.19;97243.09;4982372;28;20037;-64
2022/03/20 09:23:56;;;;;;;17.08;15.27;;;22.60;22.30;;;17.61;32.62;97249.63;4944095;28;20030;-64
2022/03/20 09:26:22;;;;;;;17.60;15.07;;;22.60;22.20;;;17.75;31.95;97245.97;4979357;28;20041;-66
2022/03/20 09:28:48;;;;;;;16.75;14.93;;;22.60;21.80;;;18.03;31.36;97248.38;4955671;28;20161;-64
2022/03/20 09:31:15;;;;;;;16.90;15.07;;;23.10;21.50;;;18.21;30.49;97245.09;4970219;28;20042;-64
2022/03/20 09:33:41;;;;;;;15.63;14.02;;;23.00;20.70;;;18.29;30.02;97247.50;4970221;28;20158;-64
2022/03/20 09:36:07;;;;;;;20.23;16.50;;;23.10;21.10;;;18.52;29.89;97248.88;4985706;28;20042;-64
2022/03/20 09:38:34;;;;;;;18.58;16.60;;;23.60;21.30;;;18.65;30.07;97251.53;4984926;28;20038;-65
2022/03/20 09:41:07;;;;;;;18.23;16.30;;;23.60;21.10;;;18.81;27.93;97245.72;4940790;28;20056;-62
2022/03/20 09:43:33;;;;;;;17.08;14.40;;;23.80;20.80;;;18.97;29.29;97255.88;4965155;28;20553;-62
2022/03/20 09:45:59;;;;;;;20.60;17.55;;;24.10;20.50;;;19.12;28.91;97254.78;4969806;28;20585;-67
2022/03/20 09:48:27;;;;;;;21.90;18.92;;;24.60;19.90;;;19.30;29.12;97254.88;4956999;28;20038;-67
2022/03/20 09:50:52;;;;;;;21.40;18.05;;;24.90;19.90;;;19.52;28.99;97253.47;4982662;28;20050;-61
2022/03/20 09:53:19;;;;;;;17.20;14.63;;;25.50;19.50;;;19.72;28.08;97257.88;4976010;28;20147;-62
2022/03/20 09:55:46;;;;;;;19.13;14.82;;;25.90;18.80;;;19.84;28.41;97240.09;4982465;28;20109;-67
2022/03/20 09:58:12;;;;;;;16.40;14.63;;;26.20;18.90;;;20.03;27.58;97249.75;4958620;28;20133;-61
2022/03/20 10:00:37;;;;;;;18.27;14.32;;;26.70;18.60;;;20.29;28.33;97255.88;4953058;28;20031;-66
2022/03/20 10:03:24;;;;;;;17.67;13.90;;;27.30;18.10;;;20.60;26.53;97255.78;4964769;28;20059;-66
2022/03/20 10:06:20;;;;;;;15.75;13.93;;;27.80;17.70;;;21.15;25.86;97258.34;4970048;28;20037;-65
2022/03/20 10:09:00;;;;;;;16.67;14.85;;;28.80;16.80;;;21.64;25.89;97249.16;4973782;28;20039;-65
2022/03/20 10:11:26;;;;;;;15.57;13.63;;;29.30;16.10;;;22.21;28.79;97245.97;4998255;28;20042;-64
2022/03/20 10:14:14;;;;;;;21.75;16.85;;;30.10;16.10;;;22.89;24.74;97243.38;4988655;28;20031;-63
2022/03/20 10:16:59;;;;;;;15.77;13.45;;;30.90;15.30;;;23.51;24.25;97245.28;4968213;28;20062;-64
2022/03/20 10:19:27;;;;;;;18.85;14.40;;;31.40;14.40;;;23.93;26.40;97252.97;4974865;28;20054;-64
2022/03/20 10:21:55;;;;;;;15.25;12.75;;;31.60;14.20;;;24.36;26.36;97249.59;4967392;28;20038;-64
2022/03/20 10:24:22;;;;;;;15.27;13.68;;;32.40;14.00;;;24.79;25.53;97254.16;4981763;28;20133;-64
2022/03/20 10:27:00;;;;;;;17.27;15.02;;;32.60;14.00;;;25.38;22.91;97242.72;4971309;28;20037;-64
2022/03/20 10:29:29;;;;;;;15.88;14.32;;;33.50;13.50;;;25.61;24.85;97237.81;4987530;28;20030;-65
2022/03/20 10:31:57;;;;;;;15.70;13.40;;;33.20;13.30;;;26.00;24.88;97234.88;4971531;28;20034;-63
2022/03/20 10:34:26;;;;;;;15.45;13.70;;;34.00;13.00;;;26.34;24.28;97234.56;4964407;28;20046;-65
2022/03/20 10:36:52;;;;;;;16.00;13.15;;;34.10;12.80;;;26.61;24.17;97240.66;4955684;28;20042;-65
2022/03/20 10:39:19;;;;;;;16.50;13.70;;;34.20;12.80;;;26.73;23.22;97235.03;4972692;28;20030;-64
2022/03/20 10:41:47;;;;;;;19.40;17.25;;;33.80;12.50;;;27.03;23.08;97237.03;4970585;28;20046;-64
2022/03/20 10:44:18;;;;;;;15.57;13.50;;;34.10;12.40;;;27.27;20.76;97238.16;4962700;28;20126;-64
2022/03/20 10:46:58;;;;;;;13.88;12.38;;;34.10;12.70;;;27.55;20.57;97234.13;4971606;28;20038;-63
2022/03/20 10:49:24;;;;;;;21.30;12.32;;;34.60;12.70;;;27.91;21.76;97237.69;4986599;28;20065;-63